Time;durP1;ratioP1;P1;durP2;ratioP2;P2;SDS_P1;SDS_P2;PMS_P1;PMS_P2;Temp;Humidity;BMP_temperature;BMP_pressure;BME280_temperature;BME280_humidity;BME280_pressure;Samples;Min_cycle;Max_cycle;Signal;HPM_P1;HPM_P2
2021/12/27 00:00:30;;;;;;;1.00;0.60;;;2.00;99.90;;;;;;9176307;19;20081;-68
2021/12/27 00:03:37;;;;;;;0.70;0.70;;;2.00;99.90;;;;;;9176076;19;20010;-68
2021/12/27 00:06:42;;;;;;;0.70;0.70;;;1.90;99.90;;;;;;9175303;19;20018;-68
2021/12/27 00:09:49;;;;;;;0.70;0.70;;;2.00;99.90;;;;;;9170332;19;20357;-68
2021/12/27 00:12:54;;;;;;;0.60;0.60;;;2.00;99.90;;;;;;9175888;19;20022;-68
2021/12/27 00:16:01;;;;;;;0.70;0.63;;;2.00;99.90;;;;;;9175866;19;20033;-69
2021/12/27 00:19:06;;;;;;;0.75;0.63;;;2.00;99.90;;;;;;9175485;19;20017;-68
2021/12/27 00:22:11;;;;;;;0.38;0.38;;;2.00;99.90;;;;;;9176131;19;20014;-68
2021/12/27 00:25:17;;;;;;;0.40;0.40;;;2.00;99.90;;;;;;9175838;19;20491;-68
2021/12/27 00:28:22;;;;;;;0.63;0.60;;;2.10;99.90;;;;;;9174035;19;20014;-68
2021/12/27 00:31:30;;;;;;;0.70;0.60;;;2.10;99.90;;;;;;9174175;19;20371;-68
2021/12/27 00:34:36;;;;;;;1.10;0.70;;;2.10;99.90;;;;;;9175096;19;20019;-68
2021/12/27 00:37:41;;;;;;;0.60;0.60;;;2.10;99.90;;;;;;9174946;19;20348;-68
2021/12/27 00:40:46;;;;;;;0.80;0.57;;;2.10;99.90;;;;;;9174907;19;20018;-68
2021/12/27 00:43:51;;;;;;;0.63;0.50;;;2.10;99.90;;;;;;9173003;19;20019;-68
2021/12/27 00:46:59;;;;;;;0.68;0.68;;;2.10;99.90;;;;;;9173527;19;20495;-69
2021/12/27 00:50:06;;;;;;;0.35;0.35;;;2.10;99.90;;;;;;9173218;19;20015;-68
2021/12/27 00:53:11;;;;;;;0.90;0.60;;;2.10;99.90;;;;;;9174924;19;20022;-68
2021/12/27 00:56:16;;;;;;;0.82;0.73;;;2.10;99.90;;;;;;9172441;19;20435;-68
2021/12/27 00:59:21;;;;;;;0.70;0.70;;;2.10;99.90;;;;;;9175578;19;20055;-68
2021/12/27 01:02:30;;;;;;;0.77;0.60;;;2.20;99.90;;;;;;9175382;19;20595;-68
2021/12/27 01:05:35;;;;;;;0.40;0.40;;;2.20;99.90;;;;;;9174968;19;20010;-68
2021/12/27 01:08:40;;;;;;;0.50;0.50;;;2.20;99.90;;;;;;9172061;19;20367;-68
2021/12/27 01:12:08;;;;;;;0.85;0.60;;;2.20;99.90;;;;;;9172133;19;20562;-68
2021/12/27 01:15:33;;;;;;;0.80;0.65;;;2.20;99.90;;;;;;9175318;19;20859;-69
2021/12/27 01:18:43;;;;;;;0.85;0.68;;;2.20;99.90;;;;;;9169954;19;20095;-68
2021/12/27 01:21:48;;;;;;;0.80;0.73;;;2.20;99.90;;;;;;9175516;19;20097;-68
2021/12/27 01:24:58;;;;;;;0.55;0.47;;;2.20;99.90;;;;;;9172888;19;20019;-69
2021/12/27 01:28:03;;;;;;;0.50;0.50;;;2.20;99.90;;;;;;9173022;19;20015;-68
2021/12/27 01:31:08;;;;;;;0.82;0.70;;;2.30;99.90;;;;;;9170878;19;20015;-68
2021/12/27 01:34:16;;;;;;;0.90;0.80;;;2.30;99.90;;;;;;9170385;19;20018;-68
2021/12/27 01:37:23;;;;;;;0.63;0.60;;;2.30;99.90;;;;;;9172147;19;20021;-68
2021/12/27 01:40:29;;;;;;;0.65;0.65;;;2.30;99.90;;;;;;9179443;19;20023;-68
2021/12/27 01:43:36;;;;;;;0.70;0.45;;;2.30;99.90;;;;;;9179688;19;20391;-68
2021/12/27 01:46:41;;;;;;;0.70;0.70;;;2.30;99.90;;;;;;9180330;19;20042;-68
2021/12/27 01:49:49;;;;;;;0.63;0.63;;;2.30;99.90;;;;;;9180436;19;20534;-69
2021/12/27 01:52:54;;;;;;;0.70;0.68;;;2.40;99.90;;;;;;9180901;19;20051;-68
2021/12/27 01:55:59;;;;;;;0.75;0.60;;;2.40;99.90;;;;;;9182469;19;20503;-68
2021/12/27 01:59:05;;;;;;;0.70;0.70;;;2.30;99.90;;;;;;9179065;19;20015;-68
2021/12/27 02:02:10;;;;;;;0.50;0.50;;;2.40;99.90;;;;;;9179781;19;20348;-68
2021/12/27 02:05:19;;;;;;;0.77;0.77;;;2.40;99.90;;;;;;9180396;19;20025;-68
2021/12/27 02:08:24;;;;;;;1.17;0.90;;;2.40;99.90;;;;;;9178895;19;20044;-68
2021/12/27 02:11:34;;;;;;;0.50;0.50;;;2.40;99.90;;;;;;9173988;19;20478;-68
2021/12/27 02:14:38;;;;;;;0.60;0.60;;;2.40;99.90;;;;;;9179284;19;20356;-68
2021/12/27 02:17:45;;;;;;;0.70;0.70;;;2.40;99.90;;;;;;9178684;19;20022;-68
2021/12/27 02:20:53;;;;;;;0.70;0.70;;;2.40;99.90;;;;;;9179998;19;20018;-68
2021/12/27 02:23:59;;;;;;;0.30;0.30;;;2.40;99.90;;;;;;9181080;19;20010;-68
2021/12/27 02:27:05;;;;;;;0.60;0.60;;;2.40;99.90;;;;;;9181850;19;20018;-68
2021/12/27 02:30:14;;;;;;;0.65;0.65;;;2.50;99.90;;;;;;9181926;19;20025;-68
2021/12/27 02:33:19;;;;;;;0.68;0.60;;;2.50;99.90;;;;;;9180889;19;20026;-68
2021/12/27 02:36:27;;;;;;;0.40;0.40;;;2.50;99.90;;;;;;9178119;19;20018;-68
2021/12/27 02:39:32;;;;;;;0.47;0.47;;;2.50;99.90;;;;;;9178692;19;20114;-68
2021/12/27 02:42:55;;;;;;;0.45;0.45;;;2.50;99.90;;;;;;9178817;19;20369;-68
2021/12/27 02:46:02;;;;;;;1.10;0.73;;;2.50;99.90;;;;;;9177429;19;20022;-68
2021/12/27 02:49:07;;;;;;;0.80;0.60;;;2.60;99.90;;;;;;9178041;19;20078;-68
2021/12/27 02:52:15;;;;;;;0.63;0.43;;;2.50;99.90;;;;;;9179175;19;20356;-68
2021/12/27 02:55:21;;;;;;;0.50;0.45;;;2.50;99.90;;;;;;9178516;19;20390;-68
2021/12/27 02:58:27;;;;;;;0.65;0.60;;;2.60;99.90;;;;;;9177314;19;20523;-68
2021/12/27 03:01:32;;;;;;;0.60;0.60;;;2.50;99.90;;;;;;9178109;19;20486;-68
2021/12/27 03:04:38;;;;;;;0.55;0.52;;;2.50;99.90;;;;;;9179587;19;20569;-68
2021/12/27 03:07:48;;;;;;;0.68;0.57;;;2.60;99.90;;;;;;9177520;19;20048;-69
2021/12/27 03:10:55;;;;;;;0.70;0.70;;;2.60;99.90;;;;;;9174462;19;20010;-69
2021/12/27 03:14:00;;;;;;;0.60;0.60;;;2.60;99.90;;;;;;9176060;19;20029;-69
2021/12/27 03:17:05;;;;;;;0.65;0.65;;;2.60;99.90;;;;;;9175667;19;20014;-69
2021/12/27 03:20:12;;;;;;;0.45;0.45;;;2.60;99.90;;;;;;9177869;19;20356;-68
2021/12/27 03:23:21;;;;;;;0.70;0.70;;;2.60;99.90;;;;;;9176417;19;20018;-69
2021/12/27 03:26:26;;;;;;;0.60;0.52;;;2.70;99.90;;;;;;9176012;19;20022;-69
2021/12/27 03:29:31;;;;;;;0.32;0.32;;;2.70;99.90;;;;;;9176919;19;20392;-69
2021/12/27 03:32:36;;;;;;;0.50;0.45;;;2.70;99.90;;;;;;9176880;19;20442;-68
2021/12/27 03:35:51;;;;;;;0.50;0.50;;;2.70;99.90;;;;;;9177803;19;20015;-69
2021/12/27 03:38:59;;;;;;;0.47;0.47;;;2.70;99.90;;;;;;9176501;19;20029;-69
2021/12/27 03:42:04;;;;;;;0.50;0.50;;;2.80;99.90;;;;;;9177255;19;20018;-69
2021/12/27 03:45:11;;;;;;;0.63;0.57;;;2.80;99.90;;;;;;9177452;19;20049;-69
2021/12/27 03:48:17;;;;;;;0.43;0.43;;;2.80;99.90;;;;;;9177271;19;20014;-69
2021/12/27 03:51:22;;;;;;;1.00;0.80;;;2.80;99.90;;;;;;9176036;19;20018;-69
2021/12/27 03:54:29;;;;;;;0.60;0.60;;;2.80;99.90;;;;;;9174721;19;20467;-69
2021/12/27 03:57:36;;;;;;;0.43;0.43;;;2.80;99.90;;;;;;9176960;19;20007;-69
2021/12/27 04:01:00;;;;;;;0.85;0.60;;;2.80;99.90;;;;;;9176174;19;20329;-69
2021/12/27 04:04:05;;;;;;;0.75;0.50;;;2.80;99.90;;;;;;9175217;19;20018;-69
2021/12/27 04:07:11;;;;;;;0.70;0.70;;;2.80;99.90;;;;;;9176007;19;20052;-69
2021/12/27 04:10:19;;;;;;;0.43;0.43;;;2.90;99.90;;;;;;9171365;19;20014;-69
2021/12/27 04:13:24;;;;;;;0.65;0.65;;;2.90;99.90;;;;;;9176676;19;20010;-69
2021/12/27 04:16:29;;;;;;;0.40;0.40;;;2.90;99.90;;;;;;9175059;19;20034;-69
2021/12/27 04:19:34;;;;;;;0.90;0.65;;;3.00;99.90;;;;;;9176129;19;20014;-69
2021/12/27 04:22:39;;;;;;;1.30;0.77;;;2.90;99.90;;;;;;9176564;19;20026;-69
2021/12/27 04:25:54;;;;;;;1.10;0.68;;;2.90;99.90;;;;;;9175704;19;20026;-69
2021/12/27 04:28:59;;;;;;;0.60;0.57;;;3.00;99.90;;;;;;9175319;19;20014;-69
2021/12/27 04:32:04;;;;;;;0.50;0.50;;;2.90;99.90;;;;;;9176303;19;20057;-69
2021/12/27 04:35:10;;;;;;;0.47;0.40;;;3.00;99.90;;;;;;9175546;19;20483;-69
2021/12/27 04:38:16;;;;;;;0.38;0.38;;;3.00;99.90;;;;;;9172318;19;20491;-69
2021/12/27 04:41:25;;;;;;;0.90;0.63;;;3.00;99.90;;;;;;9172379;19;20030;-69
2021/12/27 04:44:30;;;;;;;0.47;0.47;;;3.00;99.90;;;;;;9174382;19;20018;-68
2021/12/27 04:47:36;;;;;;;0.50;0.50;;;2.90;99.90;;;;;;9173340;19;20487;-69
2021/12/27 04:50:41;;;;;;;0.75;0.60;;;3.00;99.90;;;;;;9173706;19;20011;-69
2021/12/27 04:53:46;;;;;;;0.57;0.40;;;3.00;99.90;;;;;;9174900;19;20672;-68
2021/12/27 04:56:53;;;;;;;0.30;0.30;;;3.10;99.90;;;;;;9175360;19;20384;-68
2021/12/27 04:59:58;;;;;;;0.88;0.70;;;3.00;99.90;;;;;;9173420;19;20484;-68
2021/12/27 05:03:03;;;;;;;0.65;0.50;;;3.10;99.90;;;;;;9174334;19;20022;-68
2021/12/27 05:06:08;;;;;;;0.40;0.30;;;3.10;99.90;;;;;;9173402;19;20936;-68
2021/12/27 05:09:14;;;;;;;0.30;0.30;;;3.10;99.90;;;;;;9174319;19;20022;-69
2021/12/27 05:12:21;;;;;;;0.60;0.50;;;3.00;99.90;;;;;;9170452;19;20408;-68
2021/12/27 05:15:26;;;;;;;0.40;0.40;;;3.10;99.90;;;;;;9178277;19;20014;-68
2021/12/27 05:18:31;;;;;;;0.70;0.70;;;3.10;99.90;;;;;;9180524;19;20479;-69
2021/12/27 05:21:36;;;;;;;0.55;0.55;;;3.10;99.90;;;;;;9183670;19;20021;-69
2021/12/27 05:25:00;;;;;;;0.50;0.50;;;3.10;99.90;;;;;;9180151;19;20090;-69
2021/12/27 05:28:09;;;;;;;0.50;0.50;;;3.10;99.90;;;;;;9180195;19;20025;-69
2021/12/27 05:31:14;;;;;;;0.60;0.50;;;3.20;99.90;;;;;;9178671;19;20015;-68
2021/12/27 05:34:20;;;;;;;0.50;0.50;;;3.20;99.90;;;;;;9180634;19;20017;-69
2021/12/27 05:37:25;;;;;;;0.50;0.50;;;3.20;99.90;;;;;;9181625;19;20022;-69
2021/12/27 05:40:30;;;;;;;0.50;0.50;;;3.20;99.90;;;;;;9179007;19;20029;-68
2021/12/27 05:43:38;;;;;;;0.70;0.45;;;3.20;99.90;;;;;;9181082;19;20360;-69
2021/12/27 05:46:43;;;;;;;0.50;0.30;;;3.20;99.90;;;;;;9181329;19;20048;-69
2021/12/27 05:49:48;;;;;;;0.77;0.73;;;3.30;99.90;;;;;;9182098;19;20038;-68
2021/12/27 05:52:53;;;;;;;0.40;0.35;;;3.20;99.90;;;;;;9182137;19;20022;-69
2021/12/27 05:55:58;;;;;;;0.52;0.38;;;3.20;99.90;;;;;;9182624;19;20029;-69
2021/12/27 05:59:06;;;;;;;0.40;0.32;;;3.20;99.90;;;;;;9179583;19;20842;-68
2021/12/27 06:02:11;;;;;;;1.20;0.80;;;3.20;99.90;;;;;;9179258;19;20395;-69
2021/12/27 06:05:17;;;;;;;0.70;0.70;;;3.20;99.90;;;;;;9178540;19;20498;-69
2021/12/27 06:08:22;;;;;;;0.40;0.40;;;3.30;99.90;;;;;;9178167;19;20507;-68
2021/12/27 06:11:27;;;;;;;0.25;0.25;;;3.30;99.90;;;;;;9177738;19;20046;-69
2021/12/27 06:14:35;;;;;;;0.57;0.57;;;3.30;99.90;;;;;;9180131;19;20022;-69
2021/12/27 06:17:42;;;;;;;0.40;0.25;;;3.30;99.90;;;;;;9181070;19;20021;-69
2021/12/27 06:20:46;;;;;;;0.77;0.60;;;3.30;99.90;;;;;;9178749;19;20380;-69
2021/12/27 06:23:52;;;;;;;0.73;0.70;;;3.30;99.90;;;;;;9181644;19;20028;-69
2021/12/27 06:26:57;;;;;;;0.60;0.50;;;3.30;99.90;;;;;;9181328;19;20011;-69
2021/12/27 06:30:07;;;;;;;0.60;0.57;;;3.30;99.90;;;;;;9179553;19;20400;-69
2021/12/27 06:33:12;;;;;;;0.50;0.50;;;3.30;99.90;;;;;;9180032;19;20018;-70
2021/12/27 06:36:18;;;;;;;0.60;0.50;;;3.40;99.90;;;;;;9182814;19;20486;-69
2021/12/27 06:39:23;;;;;;;0.50;0.50;;;3.40;99.90;;;;;;9178532;19;20511;-69
2021/12/27 06:42:28;;;;;;;0.75;0.55;;;3.40;99.90;;;;;;9177595;19;20021;-69
2021/12/27 06:45:38;;;;;;;0.50;0.50;;;3.40;99.90;;;;;;9177410;19;20049;-68
2021/12/27 06:48:47;;;;;;;0.40;0.30;;;3.40;99.90;;;;;;9176794;19;20011;-69
2021/12/27 06:51:52;;;;;;;0.65;0.63;;;3.50;99.90;;;;;;9178855;19;20022;-69
2021/12/27 06:54:57;;;;;;;0.63;0.63;;;3.40;99.90;;;;;;9177795;19;20011;-69
2021/12/27 06:58:06;;;;;;;0.60;0.60;;;3.40;99.90;;;;;;9178356;19;20022;-70
2021/12/27 07:01:14;;;;;;;0.63;0.63;;;3.40;99.90;;;;;;9177688;19;20014;-69
2021/12/27 07:04:19;;;;;;;0.30;0.30;;;3.40;99.90;;;;;;9178035;19;20725;-69
2021/12/27 07:07:24;;;;;;;0.55;0.45;;;3.40;99.90;;;;;;9179068;19;20019;-69
2021/12/27 07:10:31;;;;;;;0.52;0.50;;;3.40;99.90;;;;;;9173336;19;20051;-69
2021/12/27 07:13:36;;;;;;;0.50;0.50;;;3.40;99.90;;;;;;9178708;19;20025;-69
2021/12/27 07:16:43;;;;;;;1.10;0.73;;;3.50;99.90;;;;;;9180450;19;20482;-69
2021/12/27 07:19:48;;;;;;;0.75;0.57;;;3.50;99.90;;;;;;9175521;19;20011;-69
2021/12/27 07:22:53;;;;;;;2.75;0.60;;;3.50;99.90;;;;;;9176678;19;20376;-69
2021/12/27 07:25:58;;;;;;;0.70;0.50;;;3.50;99.90;;;;;;9177755;19;20019;-69
2021/12/27 07:29:03;;;;;;;1.55;0.73;;;3.50;99.90;;;;;;9178201;19;20025;-69
2021/12/27 07:32:12;;;;;;;0.80;0.68;;;3.50;99.90;;;;;;9175684;19;20010;-69
2021/12/27 07:35:18;;;;;;;0.98;0.70;;;3.50;99.90;;;;;;9176360;19;20337;-69
2021/12/27 07:38:23;;;;;;;2.55;0.80;;;3.50;99.90;;;;;;9176642;19;20018;-69
2021/12/27 07:41:28;;;;;;;1.80;0.70;;;3.50;99.90;;;;;;9174770;19;20363;-69
2021/12/27 07:44:34;;;;;;;0.50;0.50;;;3.50;99.90;;;;;;9176765;19;20006;-69
2021/12/27 07:47:41;;;;;;;1.88;0.80;;;3.60;99.90;;;;;;9178191;19;20010;-69
2021/12/27 07:50:47;;;;;;;1.15;0.57;;;3.60;99.90;;;;;;9178734;19;20010;-70
2021/12/27 07:53:53;;;;;;;0.77;0.75;;;3.60;99.90;;;;;;9177081;19;20011;-69
2021/12/27 07:56:58;;;;;;;0.60;0.50;;;3.60;99.90;;;;;;9175281;19;20018;-69
2021/12/27 08:00:03;;;;;;;0.60;0.45;;;3.60;99.90;;;;;;9173609;19;20011;-69
2021/12/27 08:03:16;;;;;;;0.55;0.52;;;3.60;99.90;;;;;;9176666;19;20518;-69
2021/12/27 08:06:21;;;;;;;1.38;0.70;;;3.70;99.90;;;;;;9174521;19;20105;-69
2021/12/27 08:09:27;;;;;;;0.43;0.43;;;3.70;99.90;;;;;;9171790;19;20015;-69
2021/12/27 08:12:33;;;;;;;1.65;0.60;;;3.70;99.90;;;;;;9176089;19;20038;-69
2021/12/27 08:15:38;;;;;;;1.55;0.80;;;3.70;99.90;;;;;;9174287;19;20389;-69
2021/12/27 08:18:47;;;;;;;1.70;0.82;;;3.70;99.90;;;;;;9176532;19;20038;-69
2021/12/27 08:21:52;;;;;;;1.30;0.57;;;3.70;99.90;;;;;;9173205;19;20042;-70
2021/12/27 08:24:57;;;;;;;0.77;0.77;;;3.70;99.90;;;;;;9177172;19;20025;-69
2021/12/27 08:28:02;;;;;;;1.55;0.90;;;3.80;99.90;;;;;;9176640;19;20023;-69
2021/12/27 08:31:07;;;;;;;1.38;0.75;;;3.70;99.90;;;;;;9175342;19;20025;-69
2021/12/27 08:34:15;;;;;;;1.55;0.75;;;3.80;99.90;;;;;;9177269;19;20014;-69
2021/12/27 08:37:20;;;;;;;1.00;0.77;;;3.80;99.90;;;;;;9177206;19;20017;-69
2021/12/27 08:40:25;;;;;;;2.03;0.93;;;3.80;99.90;;;;;;9173495;19;20006;-71
2021/12/27 08:43:30;;;;;;;0.82;0.57;;;3.80;99.90;;;;;;9171702;19;20022;-70
2021/12/27 08:46:35;;;;;;;1.15;0.80;;;3.80;99.90;;;;;;9172181;19;20022;-70
2021/12/27 08:49:43;;;;;;;1.63;0.85;;;3.80;99.90;;;;;;9180069;19;20018;-70
2021/12/27 08:53:08;;;;;;;1.15;0.60;;;3.80;99.90;;;;;;9181844;19;20101;-70
2021/12/27 08:56:13;;;;;;;2.47;1.23;;;3.80;99.90;;;;;;9182922;19;20022;-70
2021/12/27 08:59:18;;;;;;;2.58;0.82;;;3.80;99.90;;;;;;9182128;19;20509;-70
2021/12/27 09:02:23;;;;;;;0.73;0.70;;;3.90;99.90;;;;;;9180365;19;20023;-70
2021/12/27 09:05:31;;;;;;;1.80;1.02;;;3.90;99.90;;;;;;9181696;19;20384;-70
2021/12/27 09:08:36;;;;;;;0.82;0.82;;;3.90;99.90;;;;;;9178061;19;20034;-69
2021/12/27 09:11:41;;;;;;;1.48;0.95;;;3.90;99.90;;;;;;9178439;19;20011;-70
2021/12/27 09:14:46;;;;;;;3.25;1.20;;;3.90;99.90;;;;;;9180386;19;20146;-70
2021/12/27 09:17:51;;;;;;;1.10;0.70;;;3.90;99.90;;;;;;9180036;19;20021;-70
2021/12/27 09:20:59;;;;;;;0.77;0.77;;;3.90;99.90;;;;;;9174458;19;20014;-70
2021/12/27 09:24:04;;;;;;;1.55;0.90;;;3.90;99.90;;;;;;9176066;19;20021;-69
2021/12/27 09:27:09;;;;;;;1.63;0.95;;;4.00;99.90;;;;;;9179211;19;20502;-69
2021/12/27 09:30:15;;;;;;;2.80;1.02;;;4.00;99.90;;;;;;9175981;19;20010;-70
2021/12/27 09:33:20;;;;;;;1.33;0.90;;;4.00;99.90;;;;;;9164973;19;20061;-72
2021/12/27 09:36:28;;;;;;;2.28;0.82;;;4.00;99.90;;;;;;9172520;19;20550;-70
2021/12/27 09:39:33;;;;;;;1.33;0.90;;;4.10;99.90;;;;;;9171058;19;20027;-69
2021/12/27 09:42:38;;;;;;;2.92;1.15;;;4.00;99.90;;;;;;9171286;19;20019;-68
2021/12/27 09:45:43;;;;;;;2.15;1.13;;;4.10;99.90;;;;;;9175707;19;20022;-69
2021/12/27 09:48:49;;;;;;;2.00;0.85;;;4.10;99.90;;;;;;9172800;19;20019;-69
2021/12/27 09:51:56;;;;;;;1.50;1.20;;;4.10;99.90;;;;;;9171924;19;24405;-69
2021/12/27 09:55:03;;;;;;;0.65;0.50;;;4.10;99.90;;;;;;9175206;19;20352;-68
2021/12/27 09:58:08;;;;;;;0.80;0.60;;;4.20;99.90;;;;;;9180630;19;20501;-69
2021/12/27 10:01:16;;;;;;;1.85;0.90;;;4.20;99.90;;;;;;9170610;19;20025;-68
2021/12/27 10:04:23;;;;;;;1.17;0.93;;;4.20;99.90;;;;;;9170803;19;20030;-69
2021/12/27 10:07:33;;;;;;;2.03;0.82;;;4.30;99.90;;;;;;9175720;19;20021;-68
2021/12/27 10:10:53;;;;;;;1.98;0.95;;;4.30;99.90;;;;;;9171793;19;20438;-71
2021/12/27 10:14:07;;;;;;;0.82;0.70;;;4.40;99.90;;;;;;9178132;19;20380;-70
2021/12/27 10:17:13;;;;;;;1.60;1.00;;;4.40;99.90;;;;;;9179843;19;20441;-70
2021/12/27 10:20:20;;;;;;;1.00;0.75;;;4.40;99.90;;;;;;9179705;19;20434;-70
2021/12/27 10:23:28;;;;;;;1.30;0.73;;;4.50;99.90;;;;;;9177218;19;20471;-70
2021/12/27 10:26:34;;;;;;;2.38;0.88;;;4.50;99.90;;;;;;9179782;19;20037;-69
2021/12/27 10:29:41;;;;;;;1.52;1.05;;;4.50;99.90;;;;;;9179203;19;20022;-69
2021/12/27 10:32:47;;;;;;;0.95;0.60;;;4.60;99.90;;;;;;9176432;19;20720;-69
2021/12/27 10:35:54;;;;;;;1.35;0.70;;;4.60;99.90;;;;;;9179211;19;20023;-69
2021/12/27 10:39:03;;;;;;;1.00;0.68;;;4.60;99.90;;;;;;9180227;19;20026;-69
2021/12/27 10:42:09;;;;;;;2.22;0.77;;;4.70;99.90;;;;;;9172505;19;20018;-69
2021/12/27 10:45:18;;;;;;;1.10;0.70;;;4.70;99.90;;;;;;9178919;19;20046;-69
2021/12/27 10:48:24;;;;;;;1.05;0.52;;;4.80;99.90;;;;;;9181205;19;20022;-69
2021/12/27 10:51:30;;;;;;;0.75;0.52;;;4.80;99.90;;;;;;9179006;19;20021;-69
2021/12/27 10:54:38;;;;;;;1.45;0.70;;;4.80;99.90;;;;;;9176265;19;20029;-68
2021/12/27 10:57:43;;;;;;;0.65;0.45;;;4.80;99.90;;;;;;9173105;19;20019;-69
2021/12/27 11:00:51;;;;;;;0.50;0.45;;;4.80;99.90;;;;;;9174142;19;20022;-68
2021/12/27 11:04:01;;;;;;;1.15;0.50;;;4.80;99.90;;;;;;9173481;19;20055;-68
2021/12/27 11:07:07;;;;;;;0.40;0.40;;;4.80;99.90;;;;;;9178371;19;20052;-68
2021/12/27 11:10:15;;;;;;;0.68;0.52;;;4.80;99.90;;;;;;9173912;19;20014;-69
2021/12/27 11:13:20;;;;;;;0.82;0.40;;;4.80;99.90;;;;;;9159806;19;20018;-68
2021/12/27 11:16:26;;;;;;;0.95;0.52;;;4.90;99.90;;;;;;9176075;19;20735;-68
2021/12/27 11:19:31;;;;;;;0.57;0.40;;;4.90;99.90;;;;;;9176093;19;20093;-69
2021/12/27 11:22:37;;;;;;;0.88;0.43;;;4.90;99.90;;;;;;9173185;19;20019;-69
2021/12/27 11:25:47;;;;;;;0.40;0.40;;;4.90;99.90;;;;;;9174789;19;20022;-69
2021/12/27 11:28:52;;;;;;;1.27;0.50;;;5.00;99.90;;;;;;9173764;19;20479;-69
2021/12/27 11:32:16;;;;;;;0.73;0.50;;;5.00;99.90;;;;;;9173947;19;20014;-68
2021/12/27 11:35:21;;;;;;;0.60;0.50;;;5.00;99.90;;;;;;9172130;19;20014;-68
2021/12/27 11:38:31;;;;;;;0.65;0.47;;;5.00;99.90;;;;;;9165855;19;20014;-71
2021/12/27 11:41:39;;;;;;;0.40;0.40;;;5.10;99.90;;;;;;9142729;19;20056;-70
2021/12/27 11:44:53;;;;;;;0.55;0.38;;;5.10;99.90;;;;;;9167313;19;20345;-70
2021/12/27 11:48:09;;;;;;;0.25;0.20;;;5.10;99.90;;;;;;9163496;19;20021;-70
2021/12/27 11:51:14;;;;;;;0.40;0.40;;;5.20;99.90;;;;;;9149845;19;20052;-70
2021/12/27 11:54:29;;;;;;;0.45;0.45;;;5.20;99.90;;;;;;9171633;19;20014;-68
2021/12/27 11:57:56;;;;;;;1.10;0.60;;;5.20;99.90;;;;;;9166050;19;20042;-70
2021/12/27 12:01:04;;;;;;;0.32;0.32;;;5.30;99.90;;;;;;9167713;19;20022;-71
2021/12/27 12:04:10;;;;;;;3.75;0.57;;;5.30;99.90;;;;;;9169133;19;20475;-71
2021/12/27 12:07:54;;;;;;;0.50;0.50;;;5.30;99.90;;;;;;9165456;19;20014;-70
2021/12/27 12:11:01;;;;;;;0.50;0.38;;;5.40;99.90;;;;;;9166403;19;20363;-70
2021/12/27 12:14:34;;;;;;;0.30;0.22;;;5.40;99.90;;;;;;9164002;19;20041;-71
2021/12/27 12:17:44;;;;;;;0.30;0.30;;;5.50;99.90;;;;;;9157359;19;20501;-68
2021/12/27 12:20:49;;;;;;;0.25;0.25;;;5.50;99.90;;;;;;9162922;19;20022;-71
2021/12/27 12:24:02;;;;;;;0.20;0.20;;;5.60;99.90;;;;;;9162293;19;20014;-69
2021/12/27 12:27:11;;;;;;;0.43;0.30;;;5.60;99.90;;;;;;9153140;19;20018;-71
2021/12/27 12:30:16;;;;;;;0.40;0.20;;;5.60;99.90;;;;;;9165608;19;20022;-70
2021/12/27 12:33:25;;;;;;;0.20;0.20;;;5.70;99.90;;;;;;9160680;19;20024;-68
2021/12/27 12:36:30;;;;;;;0.38;0.30;;;5.70;99.90;;;;;;9160681;19;20014;-69
2021/12/27 12:39:43;;;;;;;0.20;0.20;;;5.70;99.90;;;;;;9160603;19;20392;-70
2021/12/27 12:42:48;;;;;;;0.20;0.20;;;5.70;99.90;;;;;;9161493;19;20026;-70
2021/12/27 12:45:53;;;;;;;0.10;0.10;;;5.80;99.90;;;;;;9161264;19;20022;-70
2021/12/27 12:49:03;;;;;;;0.30;0.30;;;5.80;99.90;;;;;;9164719;19;20025;-70
2021/12/27 12:52:09;;;;;;;0.10;0.10;;;5.80;99.90;;;;;;9168300;19;20014;-70
2021/12/27 12:55:17;;;;;;;0.10;0.10;;;5.80;99.90;;;;;;9164668;19;20368;-70
2021/12/27 12:58:34;;;;;;;0.20;0.20;;;5.80;99.90;;;;;;9156981;19;20022;-69
2021/12/27 13:01:55;;;;;;;0.13;0.10;;;5.90;99.90;;;;;;9165047;19;20022;-70
2021/12/27 13:05:04;;;;;;;0.30;0.20;;;5.90;99.90;;;;;;9167070;19;20113;-70
2021/12/27 13:08:14;;;;;;;0.20;0.20;;;5.90;99.90;;;;;;9165841;19;20029;-72
2021/12/27 13:11:21;;;;;;;0.15;0.15;;;5.90;99.90;;;;;;9164256;19;20022;-70
2021/12/27 13:14:27;;;;;;;0.20;0.13;;;5.90;99.90;;;;;;9169592;19;20044;-70
2021/12/27 13:17:37;;;;;;;0.30;0.20;;;6.00;99.90;;;;;;9164254;19;20010;-70
2021/12/27 13:20:43;;;;;;;0.25;0.22;;;5.90;99.90;;;;;;9163251;19;20022;-70
2021/12/27 13:23:48;;;;;;;0.85;0.40;;;6.00;99.90;;;;;;9164102;19;20019;-68
2021/12/27 13:26:56;;;;;;;0.30;0.30;;;6.00;99.90;;;;;;9161027;19;20033;-70
2021/12/27 13:30:07;;;;;;;0.20;0.20;;;6.00;99.90;;;;;;9162011;19;20014;-70
2021/12/27 13:33:12;;;;;;;0.10;0.10;;;6.00;99.90;;;;;;9168577;19;20654;-71
2021/12/27 13:36:24;;;;;;;0.10;0.10;;;6.00;99.90;;;;;;9171868;19;20023;-71
2021/12/27 13:39:29;;;;;;;0.20;0.20;;;6.10;99.90;;;;;;9172980;19;20022;-71
2021/12/27 13:42:37;;;;;;;0.25;0.25;;;6.00;99.90;;;;;;9175162;19;20029;-71
2021/12/27 13:45:44;;;;;;;0.17;0.17;;;6.00;99.90;;;;;;9177997;19;20035;-71
2021/12/27 13:48:51;;;;;;;0.10;0.10;;;6.00;99.90;;;;;;9172808;19;20011;-72
2021/12/27 13:52:00;;;;;;;0.25;0.25;;;6.00;99.90;;;;;;9176939;19;20034;-69
2021/12/27 13:55:06;;;;;;;0.17;0.17;;;6.00;99.90;;;;;;9165936;19;20043;-71
2021/12/27 13:58:19;;;;;;;0.30;0.30;;;6.00;99.90;;;;;;9171315;19;20019;-73
2021/12/27 14:01:26;;;;;;;0.13;0.13;;;6.10;99.90;;;;;;9173506;19;20487;-72
2021/12/27 14:04:32;;;;;;;0.20;0.20;;;6.00;99.90;;;;;;9173301;19;20290;-72
2021/12/27 14:07:37;;;;;;;0.20;0.20;;;6.00;99.90;;;;;;9171724;19;20475;-72
2021/12/27 14:10:42;;;;;;;0.13;0.13;;;6.10;99.90;;;;;;9175668;19;21068;-72
2021/12/27 14:14:01;;;;;;;0.20;0.10;;;6.00;99.90;;;;;;9176684;19;20023;-71
2021/12/27 14:17:09;;;;;;;0.30;0.20;;;6.00;99.90;;;;;;9173462;19;20022;-70
2021/12/27 14:20:15;;;;;;;0.30;0.30;;;6.00;99.90;;;;;;9165001;19;20029;-71
2021/12/27 14:23:23;;;;;;;0.20;0.20;;;6.00;99.90;;;;;;9167479;19;20018;-72
2021/12/27 14:26:28;;;;;;;0.30;0.30;;;6.00;99.90;;;;;;9167726;19;20025;-72
2021/12/27 14:29:36;;;;;;;0.20;0.20;;;6.10;99.90;;;;;;9165366;19;20629;-71
2021/12/27 14:32:43;;;;;;;0.17;0.17;;;6.00;99.90;;;;;;9170607;19;20017;-72
2021/12/27 14:35:53;;;;;;;0.20;0.20;;;6.10;99.90;;;;;;9151074;19;20029;-72
2021/12/27 14:38:58;;;;;;;0.30;0.28;;;6.10;99.90;;;;;;9140648;19;20046;-70
2021/12/27 14:42:09;;;;;;;0.30;0.30;;;6.10;99.90;;;;;;9165785;19;20018;-72
2021/12/27 14:45:17;;;;;;;0.20;0.20;;;6.10;99.90;;;;;;9163161;19;20514;-72
2021/12/27 14:48:22;;;;;;;0.20;0.20;;;6.10;99.90;;;;;;9168997;19;20056;-72
2021/12/27 14:51:27;;;;;;;0.30;0.20;;;6.10;99.90;;;;;;9168577;19;20498;-70
2021/12/27 14:54:32;;;;;;;0.10;0.10;;;6.10;99.90;;;;;;9159607;19;20024;-71
2021/12/27 14:57:37;;;;;;;0.30;0.30;;;6.10;99.90;;;;;;9165702;19;20450;-71
2021/12/27 15:00:47;;;;;;;0.20;0.20;;;6.10;99.90;;;;;;9165663;19;20031;-72
2021/12/27 15:03:52;;;;;;;0.28;0.28;;;6.10;99.90;;;;;;9165874;19;20015;-72
2021/12/27 15:06:57;;;;;;;0.20;0.20;;;6.10;99.90;;;;;;9165408;19;20035;-71
2021/12/27 15:10:02;;;;;;;0.17;0.17;;;6.10;99.90;;;;;;9165432;19;20023;-72
2021/12/27 15:13:07;;;;;;;0.08;0.08;;;6.10;99.90;;;;;;9164712;19;20475;-72
2021/12/27 15:16:15;;;;;;;0.20;0.20;;;6.10;99.90;;;;;;9162920;19;20516;-71
2021/12/27 15:19:20;;;;;;;0.25;0.25;;;6.10;99.90;;;;;;9161610;19;20523;-71
2021/12/27 15:22:25;;;;;;;0.20;0.20;;;6.10;99.90;;;;;;9165214;19;20078;-71
2021/12/27 15:25:30;;;;;;;0.15;0.13;;;6.10;99.90;;;;;;9164203;19;20067;-71
2021/12/27 15:28:35;;;;;;;0.22;0.20;;;6.10;99.90;;;;;;9166269;19;20055;-71
2021/12/27 15:31:43;;;;;;;0.10;0.10;;;6.10;99.90;;;;;;9161973;19;20022;-70
2021/12/27 15:34:48;;;;;;;0.10;0.10;;;6.10;99.90;;;;;;9160832;19;20033;-71
2021/12/27 15:37:53;;;;;;;0.28;0.20;;;6.10;99.90;;;;;;9165004;19;20025;-70
2021/12/27 15:40:58;;;;;;;0.30;0.10;;;6.10;99.90;;;;;;9164570;19;20022;-71
2021/12/27 15:44:05;;;;;;;0.28;0.28;;;6.10;99.90;;;;;;9164748;19;20018;-70
2021/12/27 15:47:12;;;;;;;0.13;0.13;;;6.10;99.90;;;;;;9150730;19;20352;-73
2021/12/27 15:50:18;;;;;;;0.20;0.20;;;6.10;99.90;;;;;;9163368;19;20537;-70
2021/12/27 15:53:23;;;;;;;0.10;0.10;;;6.10;99.90;;;;;;9158143;19;20061;-71
2021/12/27 15:56:28;;;;;;;0.10;0.10;;;6.10;99.90;;;;;;9165055;19;20064;-70
2021/12/27 15:59:33;;;;;;;0.20;0.10;;;6.10;99.90;;;;;;9163587;19;20597;-69
2021/12/27 16:02:40;;;;;;;0.20;0.20;;;6.00;99.90;;;;;;9163619;19;20026;-70
2021/12/27 16:05:46;;;;;;;0.22;0.22;;;6.00;99.90;;;;;;9163629;19;20387;-71
2021/12/27 16:08:51;;;;;;;0.20;0.20;;;6.00;99.90;;;;;;9160123;19;20033;-71
2021/12/27 16:11:56;;;;;;;0.17;0.17;;;6.10;99.90;;;;;;9160047;19;20022;-70
2021/12/27 16:15:01;;;;;;;0.10;0.10;;;6.00;99.90;;;;;;9163610;19;20057;-70
2021/12/27 16:18:09;;;;;;;0.00;0.00;;;6.00;99.90;;;;;;9168564;19;20014;-68
2021/12/27 16:21:14;;;;;;;0.38;0.25;;;6.00;99.90;;;;;;9175298;19;20018;-69
2021/12/27 16:24:19;;;;;;;0.20;0.20;;;6.00;99.90;;;;;;9170149;19;20503;-71
2021/12/27 16:27:25;;;;;;;0.17;0.17;;;6.00;99.90;;;;;;9173853;19;20022;-70